Time,TemperatureF,DewpointF,PressureIn,WindDirection,WindDirectionDegrees,WindSpeedMPH,WindSpeedGustMPH,Humidity,HourlyPrecipIn,Conditions,Clouds,dailyrainin,SoftwareType,DateUTC
2013-01-17 00:15:00,41.5,41.0,29.84,NNW,337,1.7,-999.0,98,-99.99,,,0.00,Acu-Link.com,2013-01-17 05:15:00,
2013-01-17 00:30:00,41.5,41.0,29.86,NNW,337,0.0,-999.0,98,-99.99,,,0.00,Acu-Link.com,2013-01-17 05:30:00,
2013-01-17 00:46:00,41.7,41.2,29.86,NNW,337,2.7,-999.0,98,-99.99,,,0.00,Acu-Link.com,2013-01-17 05:46:00,
2013-01-17 01:01:00,41.7,41.2,29.87,NNW,337,1.1,-999.0,98,-99.99,,,0.01,Acu-Link.com,2013-01-17 06:01:00,
2013-01-17 01:16:00,41.7,41.2,29.86,North,0,1.7,-999.0,98,-99.99,,,0.01,Acu-Link.com,2013-01-17 06:16:00,
2013-01-17 01:31:00,41.9,41.4,29.86,SSE,157,0.0,-999.0,98,-99.99,,,0.01,Acu-Link.com,2013-01-17 06:31:00,
2013-01-17 01:47:00,41.9,41.4,29.85,NNE,22,2.2,-999.0,98,-99.99,,,0.02,Acu-Link.com,2013-01-17 06:47:00,
2013-01-17 02:02:00,41.9,41.4,29.86,NE,45,2.2,-999.0,98,-99.99,,,0.03,Acu-Link.com,2013-01-17 07:02:00,
2013-01-17 02:17:00,42.1,41.6,29.86,NE,45,0.0,-999.0,98,-99.99,,,0.03,Acu-Link.com,2013-01-17 07:17:00,
2013-01-17 02:33:00,41.9,41.4,29.87,WNW,292,0.0,-999.0,98,-99.99,,,0.03,Acu-Link.com,2013-01-17 07:33:00,
2013-01-17 02:48:00,41.7,41.2,29.85,NE,45,0.0,-999.0,98,-99.99,,,0.03,Acu-Link.com,2013-01-17 07:48:00,
2013-01-17 03:03:00,41.9,41.4,29.84,North,0,2.7,-999.0,98,-99.99,,,0.04,Acu-Link.com,2013-01-17 08:03:00,
2013-01-17 03:19:00,41.9,41.4,29.85,North,0,3.7,-999.0,98,-99.99,,,0.04,Acu-Link.com,2013-01-17 08:19:00,
2013-01-17 03:34:00,41.7,41.2,29.83,ENE,67,3.2,-999.0,98,-99.99,,,0.04,Acu-Link.com,2013-01-17 08:34:00,
2013-01-17 03:49:00,41.7,41.2,29.84,NNE,22,4.7,-999.0,98,-99.99,,,0.04,Acu-Link.com,2013-01-17 08:49:00,
2013-01-17 04:04:00,41.7,41.2,29.85,NNW,337,2.7,-999.0,98,-99.99,,,0.04,Acu-Link.com,2013-01-17 09:04:00,
2013-01-17 04:20:00,41.5,41.0,29.85,NNE,22,6.8,-999.0,98,-99.99,,,0.05,Acu-Link.com,2013-01-17 09:20:00,
2013-01-17 04:35:00,41.4,40.9,29.84,North,0,3.7,-999.0,98,-99.99,,,0.06,Acu-Link.com,2013-01-17 09:35:00,
2013-01-17 04:50:00,41.0,40.5,29.84,North,0,3.7,-999.0,98,-99.99,,,0.06,Acu-Link.com,2013-01-17 09:50:00,
2013-01-17 05:06:00,40.1,37.4,29.82,NNE,22,4.2,-999.0,90,-99.99,,,0.06,Acu-Link.com,2013-01-17 10:06:00,
2013-01-17 05:21:00,39.7,38.1,29.83,North,0,3.7,-999.0,94,-99.99,,,0.06,Acu-Link.com,2013-01-17 10:21:00,
2013-01-17 05:37:00,39.4,37.0,29.82,NNE,22,3.7,-999.0,91,-99.99,,,0.06,Acu-Link.com,2013-01-17 10:37:00,
2013-01-17 05:52:00,39.0,36.3,29.81,NNW,337,2.2,-999.0,90,-99.99,,,0.06,Acu-Link.com,2013-01-17 10:52:00,
2013-01-17 06:07:00,39.0,38.2,29.82,NW,315,2.2,-999.0,97,-99.99,,,0.06,Acu-Link.com,2013-01-17 11:07:00,
2013-01-17 06:23:00,39.0,38.5,29.83,ESE,112,2.7,-999.0,98,-99.99,,,0.06,Acu-Link.com,2013-01-17 11:23:00,
2013-01-17 06:38:00,39.0,36.6,29.81,NNE,22,3.2,-999.0,91,-99.99,,,0.06,Acu-Link.com,2013-01-17 11:38:00,
2013-01-17 06:53:00,39.0,38.0,29.82,West,270,0.0,-999.0,96,-99.99,,,0.06,Acu-Link.com,2013-01-17 11:53:00,
2013-01-17 07:08:00,39.0,38.5,29.82,WNW,292,4.7,-999.0,98,-99.99,,,0.06,Acu-Link.com,2013-01-17 12:08:00,
2013-01-17 07:24:00,39.2,38.7,29.82,NNW,337,2.7,-999.0,98,-99.99,,,0.06,Acu-Link.com,2013-01-17 12:24:00,
2013-01-17 07:39:00,39.2,38.7,29.81,SW,225,0.0,-999.0,98,-99.99,,,0.06,Acu-Link.com,2013-01-17 12:39:00,
2013-01-17 07:54:00,39.2,37.9,29.81,NNE,22,3.2,-999.0,95,-99.99,,,0.06,Acu-Link.com,2013-01-17 12:54:00,
2013-01-17 08:09:00,39.2,36.8,29.82,NNW,337,2.7,-999.0,91,-99.99,,,0.06,Acu-Link.com,2013-01-17 13:09:00,
2013-01-17 08:25:00,39.2,38.7,29.81,NNW,337,5.3,-999.0,98,-99.99,,,0.06,Acu-Link.com,2013-01-17 13:25:00,
2013-01-17 08:40:00,39.0,38.5,29.82,NW,315,2.7,-999.0,98,-99.99,,,0.07,Acu-Link.com,2013-01-17 13:40:00,
2013-01-17 08:55:00,38.3,37.8,29.81,NNE,22,5.3,-999.0,98,-99.99,,,0.09,Acu-Link.com,2013-01-17 13:55:00,
2013-01-17 09:11:00,38.1,37.6,29.82,NE,45,6.8,-999.0,98,-99.99,,,0.10,Acu-Link.com,2013-01-17 14:11:00,
2013-01-17 09:26:00,37.9,37.4,29.80,WNW,292,6.8,-999.0,98,-99.99,,,0.17,Acu-Link.com,2013-01-17 14:26:00,
2013-01-17 09:41:00,37.8,37.3,29.81,NNE,22,3.7,-999.0,98,-99.99,,,0.17,Acu-Link.com,2013-01-17 14:41:00,
2013-01-17 09:56:00,38.3,37.8,29.84,NW,315,4.7,-999.0,98,-99.99,,,0.20,Acu-Link.com,2013-01-17 14:56:00,
2013-01-17 10:11:00,38.3,37.8,29.83,North,0,8.9,-999.0,98,-99.99,,,0.21,Acu-Link.com,2013-01-17 15:11:00,
2013-01-17 10:27:00,37.8,37.3,29.84,NNE,22,10.9,-999.0,98,-99.99,,,0.26,Acu-Link.com,2013-01-17 15:27:00,
2013-01-17 10:42:00,37.2,36.7,29.81,WNW,292,6.3,-999.0,98,-99.99,,,0.28,Acu-Link.com,2013-01-17 15:42:00,
2013-01-17 10:57:00,37.0,36.5,29.82,ENE,67,4.2,-999.0,98,-99.99,,,0.31,Acu-Link.com,2013-01-17 15:57:00,
2013-01-17 11:12:00,37.0,36.5,29.80,NE,45,4.2,-999.0,98,-99.99,,,0.35,Acu-Link.com,2013-01-17 16:12:00,
2013-01-17 11:28:00,37.0,36.5,29.79,NNE,22,9.4,-999.0,98,-99.99,,,0.45,Acu-Link.com,2013-01-17 16:28:00,
2013-01-17 11:43:00,37.0,36.5,29.80,NE,45,3.7,-999.0,98,-99.99,,,0.50,Acu-Link.com,2013-01-17 16:43:00,
2013-01-17 11:58:00,36.7,36.2,29.79,NE,45,3.7,-999.0,98,-99.99,,,0.56,Acu-Link.com,2013-01-17 16:58:00,
2013-01-17 12:14:00,36.5,36.0,29.77,ENE,67,9.4,-999.0,98,-99.99,,,0.65,Acu-Link.com,2013-01-17 17:14:00,
2013-01-17 12:29:00,36.7,36.2,29.77,NNE,22,8.3,-999.0,98,-99.99,,,0.71,Acu-Link.com,2013-01-17 17:29:00,
2013-01-17 12:44:00,36.7,36.2,29.77,WNW,292,8.3,-999.0,98,-99.99,,,0.76,Acu-Link.com,2013-01-17 17:44:00,
2013-01-17 12:59:00,36.5,36.0,29.76,NNE,22,2.7,-999.0,98,-99.99,,,0.82,Acu-Link.com,2013-01-17 17:59:00,
2013-01-17 13:14:00,36.7,36.2,29.77,NE,45,3.7,-999.0,98,-99.99,,,0.91,Acu-Link.com,2013-01-17 18:14:00,
2013-01-17 13:29:00,36.9,36.4,29.75,NE,45,4.2,-999.0,98,-99.99,,,0.93,Acu-Link.com,2013-01-17 18:29:00,
2013-01-17 13:45:00,36.5,36.0,29.73,East,90,4.2,-999.0,98,-99.99,,,0.99,Acu-Link.com,2013-01-17 18:45:00,
2013-01-17 14:00:00,36.5,36.0,29.76,East,90,3.2,-999.0,98,-99.99,,,1.04,Acu-Link.com,2013-01-17 19:00:00,
2013-01-17 14:15:00,36.0,35.5,29.78,North,0,5.3,-999.0,98,-99.99,,,1.14,Acu-Link.com,2013-01-17 19:15:00,
2013-01-17 14:31:00,34.9,34.4,29.74,ENE,67,3.7,-999.0,98,-99.99,,,1.15,Acu-Link.com,2013-01-17 19:31:00,
2013-01-17 14:46:00,34.7,34.2,29.72,ESE,112,4.7,-999.0,98,-99.99,,,1.22,Acu-Link.com,2013-01-17 19:46:00,
2013-01-17 15:01:00,33.6,33.1,29.74,NE,45,5.3,-999.0,98,-99.99,,,1.27,Acu-Link.com,2013-01-17 20:01:00,
2013-01-17 15:17:00,33.3,32.8,29.77,East,90,3.7,-999.0,98,-99.99,,,1.27,Acu-Link.com,2013-01-17 20:17:00,
2013-01-17 15:32:00,32.7,32.2,29.76,East,90,7.3,-999.0,98,-99.99,,,1.27,Acu-Link.com,2013-01-17 20:32:00,
2013-01-17 15:47:00,32.7,32.2,29.76,NNE,22,7.3,-999.0,98,-99.99,,,1.27,Acu-Link.com,2013-01-17 20:47:00,
2013-01-17 16:02:00,32.7,32.2,29.79,NNE,22,2.7,-999.0,98,-99.99,,,1.27,Acu-Link.com,2013-01-17 21:02:00,
2013-01-17 16:18:00,32.7,32.2,29.83,NE,45,2.7,-999.0,98,-99.99,,,1.27,Acu-Link.com,2013-01-17 21:18:00,
2013-01-17 16:33:00,32.7,32.2,29.84,NE,45,1.7,-999.0,98,-99.99,,,1.27,Acu-Link.com,2013-01-17 21:33:00,
2013-01-17 16:48:00,32.5,32.0,29.83,WNW,292,2.7,-999.0,98,-99.99,,,1.27,Acu-Link.com,2013-01-17 21:48:00,
2013-01-17 17:03:00,32.5,32.0,29.84,NNW,337,0.0,-999.0,98,-99.99,,,1.27,Acu-Link.com,2013-01-17 22:03:00,
2013-01-17 17:19:00,32.5,32.0,29.86,NE,45,0.0,-999.0,98,-99.99,,,1.27,Acu-Link.com,2013-01-17 22:19:00,
2013-01-17 17:34:00,32.5,32.0,29.86,NNE,22,0.0,-999.0,98,-99.99,,,1.27,Acu-Link.com,2013-01-17 22:34:00,
2013-01-17 17:49:00,32.5,32.0,29.88,NNW,337,0.0,-999.0,98,-99.99,,,1.27,Acu-Link.com,2013-01-17 22:49:00,
2013-01-17 18:05:00,32.5,32.0,29.88,ESE,112,2.2,-999.0,98,-99.99,,,1.27,Acu-Link.com,2013-01-17 23:05:00,
2013-01-17 18:20:00,32.7,32.2,29.91,NNE,22,2.7,-999.0,98,-99.99,,,1.27,Acu-Link.com,2013-01-17 23:20:00,
2013-01-17 18:35:00,32.5,32.0,29.94,ENE,67,0.0,-999.0,98,-99.99,,,1.28,Acu-Link.com,2013-01-17 23:35:00,
2013-01-17 18:51:00,32.5,32.0,29.95,NW,315,1.7,-999.0,98,-99.99,,,1.28,Acu-Link.com,2013-01-17 23:51:00,
2013-01-17 19:06:00,32.9,32.4,29.97,West,270,1.7,-999.0,98,-99.99,,,1.28,Acu-Link.com,2013-01-18 00:06:00,
2013-01-17 19:21:00,33.1,32.6,29.98,WNW,292,2.7,-999.0,98,-99.99,,,1.28,Acu-Link.com,2013-01-18 00:21:00,
2013-01-17 19:36:00,33.1,32.6,30.00,NE,45,0.0,-999.0,98,-99.99,,,1.28,Acu-Link.com,2013-01-18 00:36:00,
2013-01-17 19:52:00,32.9,32.4,30.03,ESE,112,1.1,-999.0,98,-99.99,,,1.29,Acu-Link.com,2013-01-18 00:52:00,
2013-01-17 20:07:00,32.9,32.4,30.04,NW,315,2.7,-999.0,98,-99.99,,,1.29,Acu-Link.com,2013-01-18 01:07:00,
2013-01-17 20:22:00,32.9,32.4,30.03,ESE,112,0.0,-999.0,98,-99.99,,,1.29,Acu-Link.com,2013-01-18 01:22:00,
2013-01-17 20:38:00,32.5,32.0,30.04,NNE,22,0.0,-999.0,98,-99.99,,,1.29,Acu-Link.com,2013-01-18 01:38:00,
2013-01-17 20:53:00,32.4,31.9,30.06,NNE,22,2.7,-999.0,98,-99.99,,,1.29,Acu-Link.com,2013-01-18 01:53:00,
2013-01-17 21:08:00,32.4,31.9,30.07,North,0,4.7,-999.0,98,-99.99,,,1.29,Acu-Link.com,2013-01-18 02:08:00,
2013-01-17 21:24:00,32.4,31.9,30.08,NE,45,2.2,-999.0,98,-99.99,,,1.29,Acu-Link.com,2013-01-18 02:24:00,
2013-01-17 21:39:00,32.2,31.7,30.09,NNE,22,5.3,-999.0,98,-99.99,,,1.29,Acu-Link.com,2013-01-18 02:39:00,
2013-01-17 21:54:00,32.0,31.5,30.09,NNE,22,1.7,-999.0,98,-99.99,,,1.30,Acu-Link.com,2013-01-18 02:54:00,
2013-01-17 22:09:00,31.8,31.3,30.11,NNW,337,1.1,-999.0,98,-99.99,,,1.30,Acu-Link.com,2013-01-18 03:09:00,
2013-01-17 22:25:00,31.6,31.1,30.10,NNE,22,0.0,-999.0,98,-99.99,,,1.30,Acu-Link.com,2013-01-18 03:25:00,
2013-01-17 22:40:00,31.5,31.0,30.10,East,90,0.0,-999.0,98,-99.99,,,1.30,Acu-Link.com,2013-01-18 03:40:00,
2013-01-17 22:55:00,31.3,30.8,30.12,NNW,337,1.7,-999.0,98,-99.99,,,1.30,Acu-Link.com,2013-01-18 03:55:00,
2013-01-17 23:11:00,31.1,30.6,30.14,North,0,0.0,-999.0,98,-99.99,,,1.30,Acu-Link.com,2013-01-18 04:11:00,
2013-01-17 23:26:00,31.1,30.6,30.15,NNE,22,3.7,-999.0,98,-99.99,,,1.30,Acu-Link.com,2013-01-18 04:26:00,
2013-01-17 23:41:00,30.7,30.2,30.16,NNW,337,0.0,-999.0,98,-99.99,,,1.30,Acu-Link.com,2013-01-18 04:41:00,
2013-01-17 23:57:00,30.4,29.9,30.15,SSE,157,0.0,-999.0,98,-99.99,,,1.30,Acu-Link.com,2013-01-18 04:57:00,